Terminal Aerodrome Forecast
Issued by NWS

Home | Current Version | Previous Version | Text Only | Print | Product List | Glossary Off
Versions: 1 2 3 4 5 6 7 8 9 10 11 12 13 14 15 16 17

000
FTUS43 KABR 161730
TAFPIR
TAF
KPIR 161730Z 1618/1718 33013KT P6SM OVC120
     FM162300 35007KT P6SM OVC110
     FM170900 VRB03KT P6SM OVC110=

USA.gov is the U.S. government's official web portal to all federal, state and local government web resources and services.